Hovedside
METAR-TAF:

METAR-TAF

Lufthavner :

Bremerton National Airport

Bremerton, Washington, USA

breddegrad: 47-30N, lengdegrad: 122-45W, høyde over havet: 147 m

Gjeldene værobservasjon

Denne rapporten ble laget for 1 time og 6 minutter siden, klokken 00:56 UTC
Vind 3 kt fra Nordøst
Temperatur 4°C
Luftfuktighet 75%
Trykk 1021 hPa
Sikt: 16.1 km
Skyfri himmel

METAR: KPWT 190056Z AUTO 04003KT 10SM CLR 04/00 A3015 RMK AO2 SLP228 T00440000

Tid: 18:02 (02:02 UTC)

Varsel

Denne rapporten ble laget for 2 timer og 42 minutter siden, klokken 23:20 UTC
Varsel gyldig fra 19. klokken 00 UTC til 19. klokken 24 UTC
Vind 6 kt fra Nordøst
Sikt: 10 km
Skyfri himmel
Fra 19. klokken 1100 UTC
Vind 3 kt fra Nord-nordøst
Sikt: 4.8 km
Spredte skyer i en høyde av 200 ft
tåkebanker
Fra 19. klokken 1900 UTC
Vind 5 kt fra Nordøst
Sikt: 10 km
Skyfri himmel

TAF: KPWT 182320Z 1900/1924 05006KT P6SM SKC FM191100 03003KT 3SM BCFG SCT002 FM191900 04005KT P6SM SKC

Værobservasjoner og værvarsel for over 4000 flyplasser (METAR- og TAF-rapporter).

Tilgjengelige stasjoner er representert av de røde og gule prikkene på kartet.

Hold musepekeren over prikken for å se navnet på stasjonen.

Klikk så for å se værobservasjoner og -varsler.

For å forandre kartet kan du klikke på den grønne knappen med svart kryss for å zoome inn, på den grønne knappen med strek for å zoome ut, eller på de grønne pilene for å se tilstøtende kart.


METAR-TAF: